Flight Track Log - Related Links

Times and Time Zones

All times are in EDT time to prevent confusion due to time zone crossing. See the N912MF flight status page for this flight to view local times or setup timezone preferences in your user account.

Time Position Orientation Groundspeed Altitude Reporting Facility
EDT Latitude Longitude Course Direction KTS MPH feet Rate Location/Type
Mon 04:16:08 AM 47.4650 -111.4322 278° West 156 180 6,100  Level Salt Lake Center
Mon 04:17:08 AM 47.4708 -111.4919 276° West 148 170 8,200 2,050 Climbing Salt Lake Center
Mon 04:18:08 AM 47.4747 -111.5514 276° West 147 169 10,200 2,083 Climbing Salt Lake Center
Mon 04:19:09 AM 47.4789 -111.6075 275° West 142 163 12,400 2,033 Climbing Salt Lake Center
Mon 04:20:09 AM 47.4819 -111.6589 277° West 134 154 14,300 1,750 Climbing Salt Lake Center
Mon 04:21:09 AM 47.4861 -111.7089 275° West 127 146 15,900 1,636 Climbing Salt Lake Center
Mon 04:22:10 AM 47.4894 -111.7622 276° West 128 147 17,600 1,388 Climbing Salt Lake Center
Mon 04:23:10 AM 47.4931 -111.8158 276° West 129 148 18,700 1,200 Climbing Salt Lake Center
Mon 04:24:10 AM 47.4969 -111.8725 276° West 135 155 20,000 645 Climbing Salt Lake Center
Mon 04:25:11 AM 47.5019 -111.9461 277° West 177 204 20,000  Level Salt Lake Center
Mon 04:26:11 AM 47.5089 -112.0336 276° West 214 246 20,000  Level Salt Lake Center
Mon 04:27:11 AM 47.5153 -112.1236 275° West 220 253 20,000  Level Salt Lake Center
Mon 04:28:11 AM 47.5208 -112.2161 275° West 225 259 20,000  Level Salt Lake Center
Mon 04:29:12 AM 47.5264 -112.3072 275° West 223 257 20,000  Level Salt Lake Center
Mon 04:30:12 AM 47.5317 -112.3989 276° West 224 258 20,000  Level Salt Lake Center
Mon 04:31:12 AM 47.5378 -112.4889 276° West 222 255 20,000  Level Salt Lake Center
Mon 04:32:13 AM 47.5439 -112.5789 275° West 221 254 20,000  Level Salt Lake Center
Mon 04:33:13 AM 47.5492 -112.6694 276° West 221 254 20,000  Level Salt Lake Center
Mon 04:34:13 AM 47.5561 -112.7606 274° West 222 255 20,000  Level Salt Lake Center
Mon 04:35:13 AM 47.5606 -112.8522 276° West 223 257 20,000  Level Salt Lake Center
Mon 04:36:14 AM 47.5669 -112.9400 276° West 222 255 20,000  Level Salt Lake Center
Mon 04:37:14 AM 47.5733 -113.0319 274° West 223 257 20,000  Level Salt Lake Center
Mon 04:38:14 AM 47.5781 -113.1228 274° West 222 255 20,000  Level Salt Lake Center
Mon 04:39:15 AM 47.5825 -113.2150 275° West 223 257 20,000  Level Salt Lake Center
Mon 04:40:15 AM 47.5878 -113.3072 275° West 225 259 20,000  Level Salt Lake Center
Mon 04:41:15 AM 47.5931 -113.3997 276° West 225 259 20,000  Level Salt Lake Center
Mon 04:42:15 AM 47.5994 -113.4906 275° West 223 257 20,000  Level Salt Lake Center
Mon 04:43:16 AM 47.6044 -113.5839 274° West 225 259 20,000  Level Salt Lake Center
Mon 04:44:16 AM 47.6089 -113.6761 274° West 226 260 20,000  Level Salt Lake Center
Mon 04:45:16 AM 47.6131 -113.7678 274° West 224 258 20,000  Level Salt Lake Center
Mon 04:46:16 AM 47.6172 -113.8575 275° West 220 253 20,000  Level Salt Lake Center
Mon 04:47:17 AM 47.6228 -113.9511 274° West 224 258 20,000  Level Salt Lake Center
Mon 04:48:17 AM 47.6275 -114.0442 274° West 226 260 20,000  Level Salt Lake Center
Mon 04:49:17 AM 47.6317 -114.1378 274° West 227 261 20,000  Level Salt Lake Center
Mon 04:50:17 AM 47.6364 -114.2319 274° West 228 262 20,000  Level Salt Lake Center
Mon 04:51:18 AM 47.6411 -114.3272 274° West 230 265 20,000  Level Salt Lake Center
Mon 04:52:18 AM 47.6456 -114.4225 274° West 231 266 20,000  Level Salt Lake Center
Mon 04:53:18 AM 47.6503 -114.5181 274° West 231 266 20,000  Level Salt Lake Center
Mon 04:54:18 AM 47.6550 -114.6150 274° West 234 269 20,000  Level Salt Lake Center
Mon 04:55:19 AM 47.6592 -114.7136 274° West 237 273 20,000  Level Salt Lake Center
Mon 04:56:19 AM 47.6633 -114.8147 274° West 241 277 20,000  Level Salt Lake Center
Mon 04:57:19 AM 47.6678 -114.9136 273° West 241 277 20,000  Level Salt Lake Center
Mon 04:58:19 AM 47.6717 -115.0111 273° West 239 275 20,000 -50 Level Salt Lake Center
Mon 04:59:20 AM 47.6753 -115.1067 273° West 235 270 19,900  Descending Salt Lake Center
Mon 05:00:20 AM 47.6792 -115.2031 274° West 234 269 20,000 50 Climbing Salt Lake Center
Mon 05:01:20 AM 47.6833 -115.3017 273° West 237 273 20,000  Level Salt Lake Center
Mon 05:02:20 AM 47.6867 -115.4000 273° West 238 274 20,000 -50 Level Salt Lake Center
Mon 05:03:20 AM 47.6906 -115.4975 273° West 238 274 19,900 -50 Descending Salt Lake Center
Mon 05:04:20 AM 47.6939 -115.5947 273° West 237 273 19,900 50 Level Salt Lake Center
Mon 05:05:21 AM 47.6975 -115.6894 273° West 234 269 20,000 50 Climbing Salt Lake Center
Mon 05:06:21 AM 47.7011 -115.7814 272° West 228 262 20,000 650 Level Salt Lake Center
Mon 05:07:21 AM 47.7031 -115.8558 272° West 193 222 21,300 1,000 Climbing Salt Lake Center
Mon 05:08:21 AM 47.7050 -115.9244 274° West 172 198 22,000 350 Climbing Salt Lake Center
Mon 05:09:21 AM 47.7083 -116.0022 272° West 183 211 22,000  Level Salt Lake Center
Mon 05:10:21 AM 47.7103 -116.0969 273° West 204 235 22,000  Level Salt Lake Center
Mon 05:11:21 AM 47.7131 -116.1872 273° West 214 246 22,000  Level Salt Lake Center
Mon 05:12:22 AM 47.7164 -116.2783 272° West 219 252 22,000  Level Salt Lake Center
Mon 05:13:31 AM 47.7192 -116.3875 273° West 221 254 22,000  Level Seattle Center
Mon 05:14:31 AM 47.7225 -116.4772 273° West 219 252 22,000  Level Seattle Center
Mon 05:15:31 AM 47.7253 -116.5683 273° West 220 253 22,000  Level Seattle Center
Mon 05:16:31 AM 47.7286 -116.6583 272° West 221 254 22,000  Level Seattle Center
Mon 05:17:31 AM 47.7308 -116.7492 273° West 221 254 22,000  Level Seattle Center
Mon 05:18:31 AM 47.7339 -116.8414 272° West 224 258 22,000  Level Seattle Center
Mon 05:19:31 AM 47.7364 -116.9347 272° West 227 261 22,000  Level Seattle Center
Mon 05:20:32 AM 47.7389 -117.0272 273° West 228 262 22,000  Level Seattle Center
Mon 05:21:32 AM 47.7417 -117.1183 272° West 225 259 22,000  Level Seattle Center
Mon 05:22:32 AM 47.7433 -117.2061 272° West 224 258 22,000  Level Seattle Center
Mon 05:23:32 AM 47.7458 -117.2992 271° West 222 255 22,000  Level Seattle Center
Mon 05:24:32 AM 47.7469 -117.3897 271° West 221 254 22,000  Level Seattle Center
Mon 05:25:32 AM 47.7483 -117.4806 272° West 222 255 22,000  Level Seattle Center
Mon 05:26:32 AM 47.7506 -117.5719 271° West 222 255 22,000  Level Seattle Center
Mon 05:27:32 AM 47.7519 -117.6619 271° West 220 253 22,000  Level Seattle Center
Mon 05:28:32 AM 47.7531 -117.7519 272° West 219 252 22,000  Level Seattle Center
Mon 05:29:32 AM 47.7553 -117.8414 271° West 218 251 22,000  Level Seattle Center
Mon 05:30:32 AM 47.7558 -117.9297 271° West 216 249 22,000  Level Seattle Center
Mon 05:31:32 AM 47.7567 -118.0200 272° West 218 251 22,000  Level Seattle Center
Mon 05:32:32 AM 47.7583 -118.1114 272° West 220 253 22,000  Level Seattle Center
Mon 05:33:33 AM 47.7600 -118.2019 272° West 220 253 22,000  Level Seattle Center
Mon 05:34:33 AM 47.7619 -118.2919 270° West 219 252 22,000  Level Seattle Center
Mon 05:35:33 AM 47.7622 -118.3822 272° West 219 252 22,000  Level Seattle Center
Mon 05:36:33 AM 47.7642 -118.4739 270° West 221 254 22,000  Level Seattle Center
Mon 05:37:33 AM 47.7644 -118.5653 271° West 221 254 22,000  Level Seattle Center
Mon 05:38:33 AM 47.7650 -118.6553 271° West 220 253 22,000  Level Seattle Center
Mon 05:39:33 AM 47.7661 -118.7472 271° West 223 257 22,000  Level Seattle Center
Mon 05:40:33 AM 47.7667 -118.8389 271° West 222 255 22,000  Level Seattle Center
Mon 05:41:33 AM 47.7678 -118.9311 271° West 223 257 22,000  Level Seattle Center
Mon 05:42:33 AM 47.7683 -119.0242 271° West 225 259 22,000  Level Seattle Center
Mon 05:43:33 AM 47.7692 -119.1178 271° West 226 260 22,000  Level Seattle Center
Mon 05:44:34 AM 47.7697 -119.2083 269° West 222 255 22,000  Level Seattle Center
Mon 05:45:34 AM 47.7686 -119.3000 272° West 222 255 22,000  Level Seattle Center
Mon 05:46:34 AM 47.7706 -119.3936 270° West 225 259 22,000  Level Seattle Center
Mon 05:47:34 AM 47.7700 -119.4844 271° West 222 255 22,000  Level Seattle Center
Mon 05:48:34 AM 47.7714 -119.5767 269° West 223 257 22,000  Level Seattle Center
Mon 05:49:34 AM 47.7706 -119.6683 265° West 223 257 22,000  Level Seattle Center
Mon 05:50:34 AM 47.7656 -119.7578 260° West 220 253 22,000  Level Seattle Center
Mon 05:51:34 AM 47.7556 -119.8461 264° West 218 251 22,000  Level Seattle Center
Mon 05:52:34 AM 47.7494 -119.9339 263° West 215 247 22,000  Level Seattle Center
Mon 05:53:34 AM 47.7419 -120.0208 263° West 215 247 22,000  Level Seattle Center
Mon 05:54:34 AM 47.7344 -120.1103 263° West 217 250 22,000  Level Seattle Center
Mon 05:55:34 AM 47.7272 -120.1978 263° West 216 249 22,000 -350 Level Seattle Center
Mon 05:56:34 AM 47.7200 -120.2894 263° West 221 254 21,300 -694 Descending Seattle Center
Mon 05:57:35 AM 47.7119 -120.3856 263° West 231 266 20,600 -645 Descending Seattle Center
Mon 05:58:35 AM 47.7039 -120.4836 262° West 238 274 20,000 -650 Descending Seattle Center
Mon 05:59:35 AM 47.6944 -120.5803 262° West 238 274 19,300 -900 Descending Seattle Center
Mon 06:00:35 AM 47.6850 -120.6803 263° West 242 278 18,200 -917 Descending Seattle Center
Mon 06:01:59 AM 47.6747 -120.8008 263° West 245 282 17,100 -1,042 Descending Seattle Center
Mon 06:02:59 AM 47.6628 -120.9364 262° West 243 280 15,700 -1,350 Descending Seattle Center
Mon 06:03:59 AM 47.6539 -121.0353 262° West 244 281 14,400 -1,250 Descending Seattle Center
Mon 06:04:59 AM 47.6447 -121.1344 263° West 245 282 13,200 -1,148 Descending Seattle Center
Mon 06:05:54 AM 47.6369 -121.2289 261° West 238 274 12,200 -650 Descending Seattle Center
Mon 06:06:59 AM 47.6269 -121.3233 262° West 232 267 11,900 -768 Descending Seattle Center
Mon 06:07:59 AM 47.6178 -121.4167 263° West 231 266 10,600 -942 Descending Seattle Center
Mon 06:09:00 AM 47.6092 -121.5133 262° West 237 273 10,000 -298 Descending Seattle Center
Mon 06:10:00 AM 47.6006 -121.6022 261° West 223 257 10,000 -50 Level Seattle Center
Mon 06:11:00 AM 47.5917 -121.6900 262° West 218 251 9,900 -700 Descending Seattle Center
Mon 06:12:00 AM 47.5828 -121.7811 262° West 223 257 8,600 -1,300 Descending Seattle Center
Mon 06:13:00 AM 47.5747 -121.8664 261° West 215 247 7,300 -1,500 Descending Seattle Center
Mon 06:14:00 AM 47.5656 -121.9550 253° West 218 251 5,600 -1,650 Descending Seattle Center
Mon 06:15:00 AM 47.5456 -122.0525 246° West 224 258 4,000 -1,350 Descending Seattle Center
Mon 06:16:00 AM 47.5233 -122.1256 240° Southwest 221 254 2,900 -1,050 Descending Seattle Center
Mon 06:17:00 AM 47.4983 -122.1886 250° West 172 198 1,900 -750 Descending Seattle Center
Mon 06:18:00 AM 47.4853 -122.2408 302° West 136 157 1,400 -645 Descending Seattle Center
Mon 06:19:01 AM 47.5011 -122.2781 331° Northwest 111 128 600 4,264 Descending Seattle Center
Mon 06:20:01 AM 47.5233 -122.2964 331° Northwest 98 113 10,000 9,400 Climbing Seattle Center

Login

Don't have an account? Register now (free) for customized features, flight alerts, and more!